Time;durP1;ratioP1;P1;durP2;ratioP2;P2;SDS_P1;SDS_P2;PMS_P1;PMS_P2;Temp;Humidity;BMP_temperature;BMP_pressure;BME280_temperature;BME280_humidity;BME280_pressure;Samples;Min_cycle;Max_cycle;Signal;HPM_P1;HPM_P2
2021/12/30 00:00:22;;;;;;;52.90;27.60;;;;;;;2.69;83.47;99297.52;209506;1314;140738;-71
2021/12/30 00:05:40;;;;;;;44.20;25.80;;;;;;;2.71;83.46;99303.72;208399;1317;140464;-70
2021/12/30 00:10:43;;;;;;;52.50;24.80;;;;;;;2.69;83.41;99298.33;208101;1316;139582;-71
2021/12/30 00:15:46;;;;;;;49.10;26.50;;;;;;;2.74;83.17;99295.96;208596;1316;140107;-71
2021/12/30 00:20:49;;;;;;;55.70;29.00;;;;;;;2.78;83.40;99294.87;208350;1316;143237;-70
2021/12/30 00:25:53;;;;;;;55.30;32.00;;;;;;;2.76;83.40;99293.40;207820;1316;141609;-67
2021/12/30 00:30:56;;;;;;;52.70;27.10;;;;;;;2.80;83.63;99295.77;207401;1317;141404;-70
2021/12/30 00:36:02;;;;;;;46.90;26.80;;;;;;;2.85;83.68;99290.52;207358;1318;141111;-69
2021/12/30 00:41:07;;;;;;;50.50;28.40;;;;;;;2.83;83.74;99289.63;207234;1317;141029;-67
2021/12/30 00:46:10;;;;;;;48.10;24.60;;;;;;;2.80;83.73;99289.77;207255;1317;140401;-67
2021/12/30 00:51:13;;;;;;;55.00;34.00;;;;;;;2.81;83.64;99291.33;207735;1318;140149;-68
2021/12/30 00:56:16;;;;;;;50.40;27.60;;;;;;;2.82;83.87;99290.64;207755;1316;142808;-67
2021/12/30 01:01:20;;;;;;;55.30;28.70;;;;;;;2.78;83.61;99289.57;207276;1316;141744;-65
2021/12/30 01:06:24;;;;;;;47.50;24.80;;;;;;;2.73;83.72;99293.04;207378;1316;141682;-66
2021/12/30 01:11:27;;;;;;;53.40;26.80;;;;;;;2.69;83.65;99294.68;207236;1316;141986;-66
2021/12/30 01:16:36;;;;;;;58.60;28.00;;;;;;;2.69;83.81;99301.77;207216;1316;145033;-65
2021/12/30 01:21:38;;;;;;;49.00;25.50;;;;;;;2.66;83.95;99305.91;207299;1315;142120;-65
2021/12/30 01:26:40;;;;;;;49.50;26.10;;;;;;;2.67;83.75;99306.70;208314;1317;141525;-66
2021/12/30 01:31:42;;;;;;;53.80;27.90;;;;;;;2.66;83.77;99308.35;207563;1316;141456;-65
2021/12/30 01:36:55;;;;;;;52.70;28.00;;;;;;;2.67;84.06;99310.34;208186;1316;140726;-66
2021/12/30 01:41:59;;;;;;;48.60;25.30;;;;;;;2.69;83.72;99319.05;209008;1316;140933;-65
2021/12/30 01:47:02;;;;;;;55.40;30.30;;;;;;;2.67;83.48;99324.91;207324;1316;141353;-65
2021/12/30 01:52:04;;;;;;;48.50;29.90;;;;;;;2.66;83.91;99327.54;209577;1318;140721;-66
2021/12/30 01:57:07;;;;;;;43.10;23.70;;;;;;;2.67;83.90;99331.60;209015;1316;139764;-66
2021/12/30 02:02:14;;;;;;;53.90;29.00;;;;;;;2.73;83.75;99337.22;209359;1316;139805;-65
2021/12/30 02:07:17;;;;;;;49.40;28.50;;;;;;;2.76;83.53;99328.19;208556;1316;141945;-70
2021/12/30 02:12:19;;;;;;;49.40;26.40;;;;;;;2.76;83.58;99326.09;208153;1316;139992;-71
2021/12/30 02:17:22;;;;;;;49.40;24.60;;;;;;;2.73;83.61;99330.88;208025;1316;140594;-70
2021/12/30 02:22:32;;;;;;;53.70;25.10;;;;;;;2.78;83.77;99330.23;207246;1315;140336;-68
2021/12/30 02:27:34;;;;;;;57.60;27.60;;;;;;;2.80;83.82;99331.73;206804;1315;141745;-66
2021/12/30 02:32:39;;;;;;;56.20;25.70;;;;;;;2.80;83.75;99332.63;207324;1316;139767;-67
2021/12/30 02:37:42;;;;;;;65.30;29.30;;;;;;;2.80;83.95;99339.98;207422;1316;140036;-69
2021/12/30 02:42:57;;;;;;;;;;;;;;;;;;;;;
2021/12/30 02:48:15;;;;;;;57.80;26.30;;;;;;;2.77;83.66;99343.02;207198;1312;140055;-65
2021/12/30 02:53:19;;;;;;;51.50;23.70;;;;;;;2.76;83.81;99346.25;207182;1316;142845;-65
2021/12/30 02:58:25;;;;;;;52.60;29.70;;;;;;;2.77;83.96;99349.52;207285;1318;209535;-70
2021/12/30 03:03:27;;;;;;;55.20;24.40;;;;;;;2.77;83.74;99351.23;207179;1313;139556;-66
2021/12/30 03:08:30;;;;;;;52.60;23.60;;;;;;;2.75;83.93;99357.31;207979;1316;140139;-67
2021/12/30 03:13:34;;;;;;;55.30;25.80;;;;;;;2.76;83.80;99364.77;207503;1316;139730;-66
2021/12/30 03:18:38;;;;;;;49.60;26.40;;;;;;;2.71;83.59;99373.96;207463;1316;139515;-66
2021/12/30 03:23:41;;;;;;;54.10;24.60;;;;;;;2.64;84.00;99374.54;207944;1316;140133;-67
2021/12/30 03:28:52;;;;;;;43.10;22.40;;;;;;;2.68;83.90;99382.90;207020;1316;152590;-66
2021/12/30 03:33:58;;;;;;;47.10;24.70;;;;;;;2.71;83.55;99386.60;208430;1316;140428;-69
2021/12/30 03:39:01;;;;;;;48.10;24.40;;;;;;;2.67;83.79;99386.05;208368;1317;141273;-68
2021/12/30 03:44:04;;;;;;;41.90;21.50;;;;;;;2.69;83.87;99407.16;207598;1316;140848;-66
2021/12/30 03:49:14;;;;;;;49.70;25.40;;;;;;;2.70;83.63;99406.55;208598;1315;139982;-67
2021/12/30 03:54:17;;;;;;;48.40;24.60;;;;;;;2.69;84.12;99397.85;208592;1318;140785;-67
2021/12/30 03:59:19;;;;;;;45.90;22.60;;;;;;;2.70;84.27;99384.89;209173;1316;140323;-67
2021/12/30 04:04:22;;;;;;;45.90;22.00;;;;;;;2.74;83.92;99380.73;208630;1318;141185;-67
2021/12/30 04:09:26;;;;;;;49.10;22.90;;;;;;;2.82;84.22;99398.88;209181;1313;142208;-67
2021/12/30 04:14:29;;;;;;;47.50;24.80;;;;;;;2.83;84.05;99406.71;208588;1315;141017;-69
2021/12/30 04:19:33;;;;;;;46.80;21.60;;;;;;;2.85;84.07;99414.22;208114;1316;140166;-68
2021/12/30 04:24:36;;;;;;;55.80;24.40;;;;;;;2.88;83.89;99414.00;207482;1316;141175;-66
2021/12/30 04:29:39;;;;;;;54.60;27.80;;;;;;;2.92;84.22;99402.60;207133;1317;141064;-67
2021/12/30 04:34:42;;;;;;;50.80;23.00;;;;;;;2.90;84.24;99403.85;207985;1316;141537;-66
2021/12/30 04:39:45;;;;;;;53.90;22.70;;;;;;;2.89;84.05;99403.02;207685;1317;141482;-66
2021/12/30 04:44:49;;;;;;;58.90;27.90;;;;;;;2.89;84.15;99406.75;207157;1316;141693;-66
2021/12/30 04:49:54;;;;;;;53.20;25.20;;;;;;;2.89;84.14;99402.73;207197;1316;140775;-66
2021/12/30 04:54:58;;;;;;;47.10;23.30;;;;;;;2.88;84.26;99397.39;208051;1317;140061;-67
2021/12/30 05:00:01;;;;;;;54.60;25.60;;;;;;;2.88;84.02;99385.85;207242;1316;141113;-68
2021/12/30 05:05:04;;;;;;;60.40;27.70;;;;;;;2.85;84.39;99379.48;207642;1315;141084;-67
2021/12/30 05:10:07;;;;;;;56.60;28.70;;;;;;;2.82;84.45;99394.31;207666;1315;142346;-67
2021/12/30 05:15:10;;;;;;;54.10;23.30;;;;;;;2.78;84.21;99419.39;207186;1318;140607;-67
2021/12/30 05:20:13;;;;;;;46.90;26.70;;;;;;;2.79;84.26;99417.37;207217;1317;140800;-67
2021/12/30 05:25:18;;;;;;;53.30;25.50;;;;;;;2.79;84.32;99405.87;208527;1315;140695;-66
2021/12/30 05:30:23;;;;;;;49.50;23.50;;;;;;;2.81;84.53;99425.08;207410;1315;141852;-66
2021/12/30 05:35:26;;;;;;;55.20;32.30;;;;;;;2.84;84.37;99440.41;208028;1318;140815;-66
2021/12/30 05:40:30;;;;;;;50.80;29.40;;;;;;;2.84;84.56;99450.66;207308;1318;154557;-67
2021/12/30 05:45:32;;;;;;;52.30;27.60;;;;;;;2.84;84.46;99449.16;206953;1318;141548;-66
2021/12/30 05:50:39;;;;;;;55.50;26.20;;;;;;;2.81;84.42;99447.08;207352;1318;139573;-66
2021/12/30 05:55:43;;;;;;;52.10;28.90;;;;;;;2.85;84.51;99453.94;208147;1319;564851;-67
2021/12/30 06:00:47;;;;;;;55.20;26.90;;;;;;;2.88;84.65;99450.20;208756;1315;140708;-69
2021/12/30 06:05:51;;;;;;;48.00;22.60;;;;;;;2.93;84.41;99449.72;208590;1319;141142;-69
2021/12/30 06:10:55;;;;;;;42.80;24.00;;;;;;;3.01;84.57;99449.78;209196;1316;140996;-69
2021/12/30 06:15:58;;;;;;;39.70;24.60;;;;;;;3.06;84.46;99447.89;208982;1317;140945;-67
2021/12/30 06:21:00;;;;;;;46.60;26.80;;;;;;;3.08;84.34;99444.17;209461;1316;141510;-68
2021/12/30 06:26:06;;;;;;;42.20;21.00;;;;;;;3.08;84.29;99449.77;209584;1318;141091;-68
2021/12/30 06:31:11;;;;;;;44.80;25.10;;;;;;;3.11;84.11;99452.81;208326;1316;140183;-67
2021/12/30 06:36:17;;;;;;;44.50;24.00;;;;;;;3.08;84.15;99459.52;208519;1315;140148;-68
2021/12/30 06:41:20;;;;;;;43.20;22.10;;;;;;;3.08;84.39;99457.86;208385;1314;140001;-67
2021/12/30 06:46:34;;;;;;;33.80;21.00;;;;;;;3.15;84.46;99458.56;207569;1316;141368;-68
2021/12/30 06:51:38;;;;;;;54.00;25.80;;;;;;;3.21;84.45;99458.72;206921;1318;141740;-67
2021/12/30 06:56:41;;;;;;;47.10;23.10;;;;;;;3.23;84.74;99460.56;207827;1317;141557;-67
2021/12/30 07:01:46;;;;;;;40.70;21.70;;;;;;;3.25;84.46;99472.37;207371;1316;140587;-67
2021/12/30 07:06:50;;;;;;;39.80;23.80;;;;;;;3.24;84.34;99482.66;207769;1316;139856;-67
2021/12/30 07:11:54;;;;;;;47.00;24.20;;;;;;;3.21;84.41;99486.27;207706;1316;140086;-67
2021/12/30 07:16:58;;;;;;;44.60;22.60;;;;;;;3.21;84.56;99495.23;207142;1316;140924;-67
2021/12/30 07:22:03;;;;;;;46.10;22.40;;;;;;;3.23;84.49;99493.42;207524;1316;140620;-67
2021/12/30 07:27:05;;;;;;;45.70;25.30;;;;;;;3.22;84.43;99489.32;207575;1317;143170;-67
2021/12/30 07:32:09;;;;;;;47.50;26.10;;;;;;;3.16;84.39;99475.66;207432;1317;142254;-68
2021/12/30 07:37:14;;;;;;;47.30;22.80;;;;;;;3.10;84.32;99479.23;206997;1316;140690;-66
2021/12/30 07:42:17;;;;;;;48.30;24.50;;;;;;;3.10;84.37;99490.25;207865;1318;141568;-67
2021/12/30 07:47:21;;;;;;;45.00;24.90;;;;;;;3.15;84.48;99488.26;207457;1315;140956;-67
2021/12/30 07:52:25;;;;;;;41.30;21.60;;;;;;;3.16;84.35;99482.14;206993;1316;140685;-67
2021/12/30 07:57:29;;;;;;;40.70;21.70;;;;;;;3.25;84.48;99491.34;208230;1315;142069;-67
2021/12/30 08:02:32;;;;;;;55.00;25.70;;;;;;;3.31;84.37;99495.51;208252;1317;141335;-67
2021/12/30 08:07:36;;;;;;;40.00;21.50;;;;;;;3.31;84.52;99498.96;207082;1318;140337;-67
2021/12/30 08:12:46;;;;;;;43.30;20.90;;;;;;;3.31;84.21;99515.16;208339;1317;140947;-67
2021/12/30 08:17:50;;;;;;;44.50;23.70;;;;;;;3.34;84.14;99510.73;207604;1316;142000;-67
2021/12/30 08:22:54;;;;;;;44.90;23.40;;;;;;;3.40;84.35;99515.49;209495;1318;141080;-67
2021/12/30 08:27:57;;;;;;;39.30;21.60;;;;;;;3.52;84.61;99510.81;208005;1316;141856;-67
2021/12/30 08:33:01;;;;;;;40.00;20.30;;;;;;;3.65;84.32;99523.35;209336;1317;140560;-67
2021/12/30 08:38:04;;;;;;;40.20;22.90;;;;;;;3.79;84.30;99532.41;209185;1316;140770;-68
2021/12/30 08:43:07;;;;;;;40.40;21.10;;;;;;;3.89;84.31;99534.45;208092;1315;140163;-67
2021/12/30 08:48:10;;;;;;;37.40;20.30;;;;;;;3.95;84.06;99533.66;207658;1316;141364;-67
2021/12/30 08:53:35;;;;;;;28.30;17.60;;;;;;;4.01;84.18;99527.10;206704;1317;142175;-67
2021/12/30 08:58:39;;;;;;;36.00;20.90;;;;;;;4.04;84.01;99523.54;206787;1316;142128;-66
2021/12/30 09:03:44;;;;;;;29.60;20.10;;;;;;;3.99;83.89;99523.45;207398;1319;140146;-67
2021/12/30 09:08:48;;;;;;;42.70;20.00;;;;;;;3.96;83.82;99524.63;206782;1317;140299;-66
2021/12/30 09:13:54;;;;;;;32.00;17.90;;;;;;;4.00;83.99;99512.54;206223;1318;140956;-66
2021/12/30 09:18:57;;;;;;;30.60;18.30;;;;;;;3.99;83.82;99525.19;207879;1316;141311;-67
2021/12/30 09:24:02;;;;;;;38.80;20.70;;;;;;;3.96;84.02;99532.29;207310;1315;140462;-66
2021/12/30 09:29:18;;;;;;;31.30;19.00;;;;;;;3.99;84.03;99523.64;207239;1316;139711;-67
2021/12/30 09:34:23;;;;;;;34.40;20.50;;;;;;;4.02;83.74;99526.20;208376;1312;142375;-67
2021/12/30 09:39:26;;;;;;;39.90;22.00;;;;;;;4.07;84.00;99523.91;208302;1316;141520;-67
2021/12/30 09:44:30;;;;;;;39.00;21.80;;;;;;;4.13;84.22;99523.13;208106;1316;140525;-66
2021/12/30 09:49:33;;;;;;;34.60;23.30;;;;;;;4.20;83.75;99517.84;206874;1317;140329;-67
2021/12/30 09:54:36;;;;;;;38.50;21.50;;;;;;;4.27;83.99;99515.58;207927;1318;141981;-67
2021/12/30 09:59:39;;;;;;;41.30;24.50;;;;;;;4.33;83.92;99512.70;207443;1315;140512;-66
2021/12/30 10:04:42;;;;;;;36.30;21.80;;;;;;;4.36;83.97;99516.00;207495;1317;140373;-67
2021/12/30 10:09:50;;;;;;;37.00;23.90;;;;;;;4.38;83.59;99507.45;209241;1318;140576;-67
2021/12/30 10:14:54;;;;;;;;;;;;;;;4.46;83.79;99495.45;207830;1316;140405;-67
2021/12/30 10:20:21;;;;;;;36.90;22.00;;;;;;;4.49;83.79;99481.16;209761;1316;127252;-71
2021/12/30 10:25:39;;;;;;;39.20;22.10;;;;;;;4.58;83.65;99481.00;207289;1318;141663;-70
2021/12/30 10:30:43;;;;;;;39.40;21.40;;;;;;;4.64;83.66;99486.64;209115;1317;142232;-70
2021/12/30 10:35:48;;;;;;;39.30;21.60;;;;;;;4.69;83.73;99487.46;209262;1312;140056;-70
2021/12/30 10:40:53;;;;;;;40.80;22.60;;;;;;;4.67;83.54;99485.79;207400;1316;140280;-70
2021/12/30 10:46:04;;;;;;;38.90;22.70;;;;;;;4.65;83.63;99469.05;207853;1316;140254;-69
2021/12/30 10:51:25;;;;;;;37.80;24.00;;;;;;;4.69;83.46;99465.77;208362;1316;141147;-70
2021/12/30 10:56:34;;;;;;;37.30;22.20;;;;;;;4.72;83.79;99461.10;209436;1316;141509;-71
2021/12/30 11:01:40;;;;;;;40.00;25.40;;;;;;;4.72;83.30;99463.57;207599;1316;140518;-67
2021/12/30 11:06:46;;;;;;;32.90;21.60;;;;;;;4.66;83.07;99456.87;207445;1316;140217;-68
2021/12/30 11:11:53;;;;;;;38.70;23.90;;;;;;;4.68;83.40;99459.19;207536;1316;140253;-68
2021/12/30 11:17:01;;;;;;;38.40;22.50;;;;;;;4.63;83.44;99445.98;207920;1317;139808;-67
2021/12/30 11:22:11;;;;;;;43.70;25.20;;;;;;;4.64;83.52;99440.74;207692;1315;141714;-68
2021/12/30 11:27:16;;;;;;;38.30;24.40;;;;;;;4.66;83.43;99459.59;207223;1316;141193;-67
2021/12/30 11:32:22;;;;;;;40.20;27.20;;;;;;;4.64;83.28;99461.09;207590;1318;141001;-68
2021/12/30 11:37:26;;;;;;;39.90;24.20;;;;;;;4.54;83.18;99451.64;207254;1317;142081;-68
2021/12/30 11:42:39;;;;;;;37.00;21.50;;;;;;;4.47;83.42;99442.70;207236;1317;141428;-67
2021/12/30 11:47:47;;;;;;;;;;;;;;;4.45;83.63;99449.96;207894;1317;141529;-68
2021/12/30 11:53:26;;;;;;;44.50;22.20;;;;;;;4.44;83.91;99467.55;207815;1316;127100;-67
2021/12/30 11:58:35;;;;;;;48.10;24.40;;;;;;;4.37;83.89;99465.73;206123;1316;141883;-67
2021/12/30 12:03:57;;;;;;;46.30;23.90;;;;;;;4.34;83.88;99466.18;208137;1315;140768;-67
2021/12/30 12:09:22;;;;;;;35.30;21.60;;;;;;;4.34;83.89;99468.45;206769;1318;141165;-68
2021/12/30 12:14:27;;;;;;;42.80;24.20;;;;;;;4.32;83.86;99484.16;206707;1318;141098;-68
2021/12/30 12:19:36;;;;;;;37.50;21.20;;;;;;;4.26;84.08;99486.35;208566;1316;140171;-68
2021/12/30 12:24:40;;;;;;;37.90;20.00;;;;;;;4.26;84.10;99487.95;207495;1318;142267;-68
2021/12/30 12:29:48;;;;;;;36.70;21.10;;;;;;;4.31;84.36;99484.11;208626;1316;142194;-69
2021/12/30 12:34:53;;;;;;;36.90;21.60;;;;;;;4.32;84.08;99482.78;208390;1317;140659;-67
2021/12/30 12:39:57;;;;;;;34.80;20.00;;;;;;;4.33;84.40;99485.98;209166;1318;141796;-67
2021/12/30 12:45:29;;;;;;;28.30;17.60;;;;;;;4.36;84.15;99495.09;209110;1318;140697;-68
2021/12/30 12:50:41;;;;;;;32.50;18.30;;;;;;;4.33;83.99;99506.41;209377;1316;142244;-68
2021/12/30 12:55:45;;;;;;;29.90;19.20;;;;;;;4.29;84.40;99514.20;208201;1316;140406;-68
2021/12/30 13:00:49;;;;;;;31.00;15.00;;;;;;;4.31;84.54;99506.09;207957;1316;140289;-68
2021/12/30 13:06:00;;;;;;;34.30;19.50;;;;;;;4.37;84.37;99514.62;207786;1316;139747;-68
2021/12/30 13:11:06;;;;;;;33.40;18.00;;;;;;;4.35;84.36;99520.55;206859;1319;141147;-67
2021/12/30 13:16:29;;;;;;;15.80;9.10;;;;;;;4.36;84.63;99518.44;208701;1316;140127;-67
2021/12/30 13:21:48;;;;;;;27.30;13.90;;;;;;;4.33;84.53;99511.00;206877;1318;141447;-67
2021/12/30 13:26:52;;;;;;;23.90;14.70;;;;;;;4.37;84.66;99510.64;207007;1316;140167;-68
2021/12/30 13:32:27;;;;;;;;;;;;;;;;;;;;;
2021/12/30 13:37:39;;;;;;;24.00;12.10;;;;;;;4.37;84.95;99507.11;207362;1315;141032;-67
2021/12/30 13:42:52;;;;;;;22.30;12.10;;;;;;;4.40;85.06;99512.52;207000;1318;140795;-68
2021/12/30 13:48:14;;;;;;;91.10;36.50;;;;;;;4.45;85.39;99502.39;207096;1316;141109;-68
2021/12/30 13:53:21;;;;;;;68.40;30.20;;;;;;;4.50;85.37;99514.13;206806;1316;722504;-67
2021/12/30 13:58:44;;;;;;;21.60;10.30;;;;;;;4.52;85.59;99512.95;206730;1318;141510;-66
2021/12/30 14:04:10;;;;;;;23.60;13.60;;;;;;;4.55;85.45;99516.34;207505;1316;141262;-67
2021/12/30 14:09:18;;;;;;;20.80;13.70;;;;;;;4.57;85.68;99519.79;207918;1318;140922;-68
2021/12/30 14:14:51;;;;;;;26.10;15.30;;;;;;;4.59;85.66;99526.68;207649;1316;140516;-67
2021/12/30 14:19:57;;;;;;;21.80;14.20;;;;;;;4.60;85.45;99532.94;207140;1316;141233;-68
2021/12/30 14:25:05;;;;;;;23.40;12.70;;;;;;;4.60;85.74;99531.96;207123;1316;139985;-70
2021/12/30 14:30:17;;;;;;;26.30;13.70;;;;;;;4.59;85.82;99519.86;207851;1316;139818;-68
2021/12/30 14:35:26;;;;;;;27.40;15.00;;;;;;;4.62;85.87;99509.58;208325;1316;141008;-67
2021/12/30 14:40:35;;;;;;;29.20;16.50;;;;;;;4.66;85.74;99510.13;209269;1316;140944;-68
2021/12/30 14:45:42;;;;;;;25.60;13.90;;;;;;;4.67;86.14;99514.30;207460;1316;140779;-70
2021/12/30 14:50:46;;;;;;;32.30;14.60;;;;;;;4.73;85.90;99529.63;208594;1318;140856;-66
2021/12/30 14:55:53;;;;;;;29.30;16.40;;;;;;;4.78;85.98;99534.67;208042;1318;141523;-71
2021/12/30 15:01:02;;;;;;;30.10;16.60;;;;;;;4.78;86.05;99535.57;206450;1316;140473;-66
2021/12/30 15:06:08;;;;;;;27.30;14.40;;;;;;;4.78;85.95;99538.94;208503;1317;140736;-68
2021/12/30 15:11:13;;;;;;;30.10;16.80;;;;;;;4.81;86.15;99560.31;208336;1316;142475;-70
2021/12/30 15:16:17;;;;;;;31.30;17.90;;;;;;;4.87;86.29;99566.51;208529;1312;140066;-66
2021/12/30 15:21:21;;;;;;;31.90;15.20;;;;;;;4.89;86.10;99562.11;207982;1316;141144;-71
2021/12/30 15:26:26;;;;;;;28.80;15.30;;;;;;;4.91;86.18;99569.33;207854;1316;140994;-72
2021/12/30 15:31:29;;;;;;;32.20;17.90;;;;;;;4.95;86.18;99577.30;207244;1316;141637;-72
2021/12/30 15:36:44;;;;;;;28.80;15.70;;;;;;;4.97;86.37;99580.70;208243;1316;141304;-69
2021/12/30 15:41:48;;;;;;;27.90;18.20;;;;;;;5.05;86.65;99577.44;206942;1315;140766;-72
2021/12/30 15:46:52;;;;;;;29.50;18.20;;;;;;;5.07;86.50;99583.91;207047;1316;139945;-69
2021/12/30 15:51:58;;;;;;;31.30;16.60;;;;;;;5.05;86.18;99569.02;207054;1316;139800;-68
2021/12/30 15:57:02;;;;;;;29.20;16.80;;;;;;;5.08;86.37;99544.19;207213;1317;142241;-70
2021/12/30 16:02:09;;;;;;;27.50;14.50;;;;;;;5.13;86.33;99546.91;208215;1315;140999;-69
2021/12/30 16:07:16;;;;;;;30.10;18.20;;;;;;;5.16;86.49;99531.76;207080;1316;139510;-72
2021/12/30 16:12:20;;;;;;;30.70;17.50;;;;;;;5.19;86.19;99515.45;207408;1316;140959;-74
2021/12/30 16:17:24;;;;;;;33.70;19.90;;;;;;;5.21;86.28;99523.86;208159;1315;140961;-74
2021/12/30 16:22:28;;;;;;;32.30;17.90;;;;;;;5.21;86.42;99533.89;207639;1316;150280;-73
2021/12/30 16:27:31;;;;;;;28.70;14.90;;;;;;;5.19;86.09;99542.57;208768;1316;140447;-74
2021/12/30 16:32:34;;;;;;;36.00;18.20;;;;;;;5.22;86.22;99510.10;208007;1316;212274;-69
2021/12/30 16:37:37;;;;;;;34.90;18.80;;;;;;;5.20;85.98;99492.92;207981;1316;142370;-69
2021/12/30 16:42:44;;;;;;;36.80;18.40;;;;;;;5.19;86.02;99496.55;208836;1316;140367;-69
2021/12/30 16:47:47;;;;;;;39.70;21.50;;;;;;;5.22;86.09;99502.13;209106;1316;141683;-67
2021/12/30 16:52:50;;;;;;;39.60;20.30;;;;;;;5.26;86.05;99522.01;209311;1316;143428;-67
2021/12/30 16:57:55;;;;;;;40.20;22.00;;;;;;;5.26;86.09;99510.71;208914;1316;140435;-68
2021/12/30 17:03:10;;;;;;;35.70;20.00;;;;;;;5.28;85.96;99505.75;207274;1317;140496;-68
2021/12/30 17:08:22;;;;;;;39.60;20.80;;;;;;;5.33;86.29;99512.57;208805;1316;141123;-71
2021/12/30 17:13:28;;;;;;;40.80;23.60;;;;;;;5.36;86.01;99518.71;207113;1316;139791;-71
2021/12/30 17:18:31;;;;;;;37.80;19.50;;;;;;;5.35;86.47;99519.81;207287;1316;140955;-69
2021/12/30 17:23:33;;;;;;;43.30;22.40;;;;;;;5.34;86.19;99543.67;206978;1316;140868;-69
2021/12/30 17:28:38;;;;;;;48.00;24.70;;;;;;;5.34;86.42;99544.66;207209;1317;140129;-68
2021/12/30 17:33:46;;;;;;;44.90;22.50;;;;;;;5.37;86.43;99542.79;207121;1316;140624;-70
2021/12/30 17:38:49;;;;;;;42.70;23.00;;;;;;;5.41;86.53;99542.63;207120;1316;140640;-69
2021/12/30 17:43:53;;;;;;;39.80;24.60;;;;;;;5.43;86.25;99536.40;207804;1316;140631;-73
2021/12/30 17:48:57;;;;;;;42.80;24.50;;;;;;;5.42;86.56;99553.60;207068;1316;140912;-71
2021/12/30 17:54:04;;;;;;;41.60;24.30;;;;;;;5.45;86.95;99537.86;206802;1318;140872;-73
2021/12/30 17:59:10;;;;;;;39.10;21.60;;;;;;;5.49;86.71;99523.33;207138;1319;141918;-73
2021/12/30 18:04:13;;;;;;;40.60;23.20;;;;;;;5.52;86.81;99541.16;206595;1318;140549;-72
2021/12/30 18:09:16;;;;;;;43.70;24.00;;;;;;;5.58;87.04;99544.89;206712;1318;142137;-71
2021/12/30 18:14:19;;;;;;;42.60;23.90;;;;;;;5.61;86.94;99541.92;206972;1316;140711;-72
2021/12/30 18:19:24;;;;;;;42.50;24.00;;;;;;;5.62;86.77;99534.92;207228;1315;140975;-72
2021/12/30 18:24:29;;;;;;;46.70;23.70;;;;;;;5.57;86.93;99531.22;206912;1316;142467;-72
2021/12/30 18:29:32;;;;;;;40.30;20.30;;;;;;;5.60;86.73;99529.60;207740;1316;143650;-72
2021/12/30 18:34:36;;;;;;;36.90;22.10;;;;;;;5.59;86.60;99527.56;207256;1316;143526;-71
2021/12/30 18:39:40;;;;;;;34.10;19.40;;;;;;;5.58;86.78;99523.09;206599;1318;142610;-72
2021/12/30 18:44:43;;;;;;;32.40;19.80;;;;;;;5.60;86.43;99513.56;208110;1319;141970;-73
2021/12/30 18:49:46;;;;;;;39.00;22.50;;;;;;;5.59;86.66;99512.06;207983;1319;140552;-73
2021/12/30 18:54:50;;;;;;;37.70;21.60;;;;;;;5.54;86.22;99514.96;207713;1319;161366;-74
2021/12/30 19:00:19;;;;;;;33.00;18.50;;;;;;;5.55;86.53;99516.74;207717;1316;141005;-75
2021/12/30 19:05:29;;;;;;;31.90;21.50;;;;;;;5.60;86.54;99515.89;209014;1316;140810;-73
2021/12/30 19:10:33;;;;;;;35.80;18.50;;;;;;;5.61;86.53;99519.38;209438;1316;141315;-75
2021/12/30 19:15:38;;;;;;;27.70;16.90;;;;;;;5.64;86.32;99507.22;209069;1318;141485;-75
2021/12/30 19:20:43;;;;;;;31.50;18.50;;;;;;;5.66;85.98;99515.22;209225;1316;141810;-73
2021/12/30 19:25:49;;;;;;;32.00;21.00;;;;;;;5.65;86.35;99519.58;207927;1316;142024;-72
2021/12/30 19:30:53;;;;;;;29.90;16.60;;;;;;;5.65;86.70;99517.77;207428;1316;141624;-70
2021/12/30 19:35:59;;;;;;;30.40;19.30;;;;;;;5.66;86.32;99521.11;207955;1316;141568;-71
2021/12/30 19:41:05;;;;;;;37.50;18.50;;;;;;;5.72;86.77;99518.63;207602;1316;140383;-71
2021/12/30 19:46:20;;;;;;;37.80;19.60;;;;;;;5.73;86.60;99512.77;207934;1316;140569;-72
2021/12/30 19:51:24;;;;;;;29.30;18.70;;;;;;;5.78;86.72;99505.23;207959;1317;141805;-70
2021/12/30 19:56:27;;;;;;;30.50;17.80;;;;;;;5.81;86.62;99507.47;208396;1316;140622;-72
2021/12/30 20:01:36;;;;;;;36.10;20.60;;;;;;;5.81;86.67;99504.98;209266;1316;140700;-70
2021/12/30 20:06:39;;;;;;;31.70;17.90;;;;;;;5.84;86.79;99509.73;207323;1316;140811;-70
2021/12/30 20:11:42;;;;;;;27.90;16.00;;;;;;;5.88;86.75;99509.94;207703;1316;164106;-69
2021/12/30 20:16:45;;;;;;;33.50;18.00;;;;;;;5.92;86.95;99515.40;207409;1315;141894;-70
2021/12/30 20:21:48;;;;;;;27.80;16.80;;;;;;;5.93;87.11;99513.32;207426;1315;140944;-70
2021/12/30 20:26:58;;;;;;;28.00;18.30;;;;;;;5.93;86.55;99511.16;207003;1315;231690;-70
2021/12/30 20:32:03;;;;;;;28.90;16.00;;;;;;;5.95;86.94;99512.70;208609;1316;140972;-71
2021/12/30 20:37:10;;;;;;;25.10;17.00;;;;;;;5.90;87.03;99508.89;208115;1316;141560;-67
2021/12/30 20:42:14;;;;;;;22.70;14.70;;;;;;;5.91;86.44;99505.46;207211;1316;141132;-69
2021/12/30 20:47:19;;;;;;;22.10;15.10;;;;;;;5.93;86.98;99500.63;208472;1317;142691;-71
2021/12/30 20:52:27;;;;;;;21.20;14.80;;;;;;;5.94;87.14;99501.71;207598;1316;143433;-70
2021/12/30 20:57:31;;;;;;;21.60;14.30;;;;;;;5.93;86.91;99505.91;207212;1316;152801;-71
2021/12/30 21:02:35;;;;;;;24.10;14.10;;;;;;;5.96;87.35;99512.21;207086;1316;141904;-71
2021/12/30 21:07:38;;;;;;;18.10;12.70;;;;;;;5.95;87.26;99514.05;209261;1317;141355;-72
2021/12/30 21:12:43;;;;;;;22.30;12.60;;;;;;;5.97;86.98;99511.44;207364;1318;140946;-71
2021/12/30 21:17:48;;;;;;;18.80;12.50;;;;;;;6.00;87.03;99507.84;209092;1316;141254;-71
2021/12/30 21:22:55;;;;;;;19.90;14.00;;;;;;;6.06;87.53;99502.36;209488;1316;141866;-70
2021/12/30 21:28:00;;;;;;;17.20;11.70;;;;;;;6.12;87.76;99504.94;209041;1316;140189;-71
2021/12/30 21:33:08;;;;;;;19.30;13.30;;;;;;;6.20;87.20;99507.05;207794;1316;151848;-71
2021/12/30 21:38:16;;;;;;;17.20;12.70;;;;;;;6.24;87.19;99504.70;208792;1316;142408;-70
2021/12/30 21:43:27;;;;;;;20.50;12.50;;;;;;;6.28;87.83;99496.83;208281;1316;140404;-70
2021/12/30 21:48:29;;;;;;;21.30;13.20;;;;;;;6.36;87.45;99497.73;208183;1315;142995;-70
2021/12/30 21:53:35;;;;;;;18.90;12.00;;;;;;;6.39;87.14;99498.02;207635;1315;760798;-71
2021/12/30 21:58:39;;;;;;;17.40;13.70;;;;;;;6.36;87.36;99506.73;207425;1316;140631;-71
2021/12/30 22:03:42;;;;;;;21.80;12.60;;;;;;;6.39;87.46;99498.40;207753;1315;141136;-74
2021/12/30 22:08:44;;;;;;;18.70;12.10;;;;;;;6.41;87.41;99494.17;207743;1316;143126;-75
2021/12/30 22:13:46;;;;;;;14.90;8.90;;;;;;;6.41;87.55;99497.08;206954;1316;141150;-75
2021/12/30 22:18:49;;;;;;;13.10;9.20;;;;;;;6.38;87.50;99493.55;207035;1316;140478;-73
2021/12/30 22:23:52;;;;;;;15.70;10.80;;;;;;;6.43;87.49;99494.52;207614;1315;141327;-69
2021/12/30 22:28:54;;;;;;;13.30;9.20;;;;;;;6.45;88.04;99502.05;207768;1317;141266;-69
2021/12/30 22:33:56;;;;;;;14.60;11.40;;;;;;;6.50;88.11;99504.30;206974;1315;141662;-69
2021/12/30 22:38:59;;;;;;;16.30;8.80;;;;;;;6.57;88.00;99506.34;207425;1316;142103;-70
2021/12/30 22:44:03;;;;;;;18.00;11.40;;;;;;;6.64;88.16;99503.20;208494;1316;143004;-69
2021/12/30 22:49:10;;;;;;;17.10;10.20;;;;;;;6.71;88.67;99508.41;207049;1318;141313;-69
2021/12/30 22:54:14;;;;;;;14.50;10.30;;;;;;;6.76;88.53;99502.03;208622;1316;140366;-68
2021/12/30 22:59:18;;;;;;;13.60;9.00;;;;;;;6.81;88.19;99500.45;207816;1318;141684;-73
2021/12/30 23:04:21;;;;;;;13.00;8.70;;;;;;;6.88;88.67;99500.73;208190;1316;140587;-72
2021/12/30 23:09:24;;;;;;;11.10;7.90;;;;;;;6.95;88.87;99504.05;208117;1318;140695;-70
2021/12/30 23:14:27;;;;;;;11.00;7.20;;;;;;;7.01;88.73;99506.04;208028;1316;140001;-70